createdAt,value
2022-10-17T00:00:27.627Z,972.4000
2022-10-17T00:01:29.674Z,972.4200
2022-10-17T00:02:31.711Z,972.4000
2022-10-17T00:03:33.911Z,972.4400
2022-10-17T00:04:36.245Z,972.4600
2022-10-17T00:05:35.744Z,972.4600
2022-10-17T00:06:36.343Z,972.4200
2022-10-17T00:07:38.518Z,972.4600
2022-10-17T00:08:40.648Z,972.4800
2022-10-17T00:09:42.852Z,972.4800
2022-10-17T00:10:44.967Z,972.5000
2022-10-17T00:11:47.108Z,972.4800
2022-10-17T00:12:49.261Z,972.5000
2022-10-17T00:13:51.441Z,972.5000
2022-10-17T00:14:53.647Z,972.5000
2022-10-17T00:15:55.791Z,972.5200
2022-10-17T00:16:57.974Z,972.4800
2022-10-17T00:18:00.148Z,972.4800
2022-10-17T00:19:02.495Z,972.4800
2022-10-17T00:20:04.537Z,972.4600
2022-10-17T00:21:06.667Z,972.4800
2022-10-17T00:22:08.824Z,972.5000
2022-10-17T00:23:10.978Z,972.4800
2022-10-17T00:24:13.133Z,972.5000
2022-10-17T00:25:15.336Z,972.4800
2022-10-17T00:26:17.458Z,972.5200
2022-10-17T00:27:19.613Z,972.5200
2022-10-17T00:28:21.913Z,972.5200
2022-10-17T00:29:24.095Z,972.5400
2022-10-17T00:30:24.262Z,972.5400
2022-10-17T00:31:26.491Z,972.5400
2022-10-17T00:32:29.092Z,972.5800
2022-10-17T00:33:31.002Z,972.5600
2022-10-17T00:34:33.246Z,972.5600
2022-10-17T00:35:35.631Z,972.5600
2022-10-17T00:36:37.722Z,972.5600
2022-10-17T00:37:39.922Z,972.5800
2022-10-17T00:38:42.139Z,972.5400
2022-10-17T00:39:42.227Z,972.5400
2022-10-17T00:40:44.546Z,972.5400
2022-10-17T00:41:46.691Z,972.5400
2022-10-17T00:42:48.853Z,972.5400
2022-10-17T00:43:51.076Z,972.5200
2022-10-17T00:44:53.287Z,972.5200
2022-10-17T00:45:55.549Z,972.5200
2022-10-17T00:46:57.758Z,972.5400
2022-10-17T00:48:00.007Z,972.5200
2022-10-17T00:49:02.254Z,972.5400
2022-10-17T00:50:04.503Z,972.5200
2022-10-17T00:51:06.741Z,972.5000
2022-10-17T00:52:08.936Z,972.5200
2022-10-17T00:53:09.009Z,972.5200
2022-10-17T00:54:11.277Z,972.5400
2022-10-17T00:55:13.536Z,972.5200
2022-10-17T00:56:15.841Z,972.5200
2022-10-17T00:57:18.085Z,972.5000
2022-10-17T00:58:20.363Z,972.5000
2022-10-17T00:59:22.613Z,972.4600
2022-10-17T01:00:24.839Z,972.5000
2022-10-17T01:01:27.220Z,972.4600
2022-10-17T01:02:29.697Z,972.4600
2022-10-17T01:03:29.346Z,972.4600
2022-10-17T01:04:31.546Z,972.4800
2022-10-17T01:05:33.746Z,972.5000
2022-10-17T01:06:36.036Z,972.5200
2022-10-17T01:07:38.276Z,972.5200
2022-10-17T01:08:40.523Z,972.5200
2022-10-17T01:09:42.767Z,972.5200
2022-10-17T01:10:44.938Z,972.5200
2022-10-17T01:11:47.174Z,972.5000
2022-10-17T01:12:49.382Z,972.5200
2022-10-17T01:13:51.541Z,972.5200
2022-10-17T01:14:53.714Z,972.5000
2022-10-17T01:15:55.928Z,972.5000
2022-10-17T01:16:55.976Z,972.5000
2022-10-17T01:17:58.156Z,972.5200
2022-10-17T01:19:00.388Z,972.5000
2022-10-17T01:20:02.596Z,972.5000
2022-10-17T01:21:04.782Z,972.5000
2022-10-17T01:22:07.031Z,972.4800
2022-10-17T01:23:09.208Z,972.4800
2022-10-17T01:24:11.363Z,972.5000
2022-10-17T01:25:13.567Z,972.4600
2022-10-17T01:26:15.740Z,972.4600
2022-10-17T01:27:17.975Z,972.5000
2022-10-17T01:28:20.241Z,972.5200
2022-10-17T01:29:22.387Z,972.5200
2022-10-17T01:30:24.580Z,972.5200
2022-10-17T01:31:26.749Z,972.5600
2022-10-17T01:32:29.415Z,972.5000
2022-10-17T01:33:31.035Z,972.5000
2022-10-17T01:34:33.172Z,972.5200
2022-10-17T01:35:35.375Z,972.5000
2022-10-17T01:36:37.573Z,972.4800
2022-10-17T01:37:39.811Z,972.5000
2022-10-17T01:38:41.955Z,972.4600
2022-10-17T01:39:45.322Z,972.4400
2022-10-17T01:40:44.206Z,972.4400
2022-10-17T01:41:46.408Z,972.4800
2022-10-17T01:42:48.631Z,972.4200
2022-10-17T01:43:50.832Z,972.4400
2022-10-17T01:44:52.992Z,972.4400
2022-10-17T01:45:55.175Z,972.4200
2022-10-17T01:47:59.570Z,972.4000
2022-10-17T01:49:01.740Z,972.4000
2022-10-17T01:50:01.793Z,972.4000
2022-10-17T01:51:04.004Z,972.4200
2022-10-17T01:52:06.218Z,972.4000
2022-10-17T01:53:08.479Z,972.4200
2022-10-17T01:54:10.650Z,972.4000
2022-10-17T01:55:12.797Z,972.4000
2022-10-17T01:56:14.977Z,972.4000
2022-10-17T01:57:17.126Z,972.4000
2022-10-17T01:58:19.367Z,972.4200
2022-10-17T01:59:21.574Z,972.4200
2022-10-17T02:00:23.738Z,972.4000
2022-10-17T02:01:25.919Z,972.3800
2022-10-17T02:02:28.043Z,972.3800
2022-10-17T02:03:30.240Z,972.3800
2022-10-17T02:04:32.377Z,972.3800
2022-10-17T02:05:34.580Z,972.3800
2022-10-17T02:06:36.814Z,972.3800
2022-10-17T02:07:39.057Z,972.4000
2022-10-17T02:08:41.316Z,972.4400
2022-10-17T02:09:43.506Z,972.4200
2022-10-17T02:10:43.585Z,972.4400
2022-10-17T02:11:45.817Z,972.4800
2022-10-17T02:12:48.086Z,972.4800
2022-10-17T02:13:50.372Z,972.5000
2022-10-17T02:14:52.670Z,972.5000
2022-10-17T02:16:26.612Z,972.5000
2022-10-17T02:17:27.680Z,972.4800
2022-10-17T02:18:29.431Z,972.4800
2022-10-17T02:19:31.714Z,972.5000
2022-10-17T02:20:33.889Z,972.4600
2022-10-17T02:21:36.093Z,972.4200
2022-10-17T02:22:38.318Z,972.4400
2022-10-17T02:23:40.524Z,972.4600
2022-10-17T02:24:42.793Z,972.4000
2022-10-17T02:25:45.016Z,972.4000
2022-10-17T02:26:47.250Z,972.4400
2022-10-17T02:27:49.456Z,972.4400
2022-10-17T02:28:51.732Z,972.4200
2022-10-17T02:29:51.794Z,972.4000
2022-10-17T02:30:54.018Z,972.4200
2022-10-17T02:31:56.202Z,972.4000
2022-10-17T02:32:58.432Z,972.4000
2022-10-17T02:34:00.640Z,972.4200
2022-10-17T02:35:02.920Z,972.4200
2022-10-17T02:36:05.117Z,972.4000
2022-10-17T02:37:07.359Z,972.4200
2022-10-17T02:38:09.588Z,972.3800
2022-10-17T02:39:11.817Z,972.3800
2022-10-17T02:40:14.073Z,972.4000
2022-10-17T02:41:16.345Z,972.3800
2022-10-17T02:42:16.337Z,972.3800
2022-10-17T02:43:18.573Z,972.3800
2022-10-17T02:44:20.786Z,972.4200
2022-10-17T02:45:22.976Z,972.4400
2022-10-17T02:46:25.197Z,972.4400
2022-10-17T02:47:27.365Z,972.4200
2022-10-17T02:48:29.564Z,972.4600
2022-10-17T02:49:31.749Z,972.4600
2022-10-17T02:50:33.995Z,972.4600
2022-10-17T02:51:36.141Z,972.4600
2022-10-17T02:52:38.349Z,972.4800
2022-10-17T02:53:40.573Z,972.4600
2022-10-17T02:54:42.810Z,972.4600
2022-10-17T02:55:45.082Z,972.4600
2022-10-17T02:56:45.158Z,972.4400
2022-10-17T02:57:47.419Z,972.4200
2022-10-17T02:58:49.649Z,972.4200
2022-10-17T02:59:51.898Z,972.4400
2022-10-17T03:00:54.192Z,972.4400
2022-10-17T03:01:56.318Z,972.4200
2022-10-17T03:02:58.499Z,972.4400
2022-10-17T03:04:00.676Z,972.4600
2022-10-17T03:05:02.843Z,972.4400
2022-10-17T03:06:05.053Z,972.4800
2022-10-17T03:07:07.188Z,972.4800
2022-10-17T03:08:09.388Z,972.4800
2022-10-17T03:09:11.609Z,972.4800
2022-10-17T03:10:13.814Z,972.4600
2022-10-17T03:11:16.093Z,972.5000
2022-10-17T03:12:18.199Z,972.5400
2022-10-17T03:13:18.246Z,972.5400
2022-10-17T03:14:20.445Z,972.5200
2022-10-17T03:15:22.631Z,972.5800
2022-10-17T03:16:24.860Z,972.5800
2022-10-17T03:17:27.045Z,972.5800
2022-10-17T03:18:29.223Z,972.5800
2022-10-17T03:19:31.442Z,972.5800
2022-10-17T03:20:33.627Z,972.5600
2022-10-17T03:21:35.824Z,972.5800
2022-10-17T03:22:37.954Z,972.5600
2022-10-17T03:23:40.095Z,972.5800
2022-10-17T03:24:42.282Z,972.6000
2022-10-17T03:25:44.483Z,972.6200
2022-10-17T03:27:48.955Z,972.6400
2022-10-17T03:28:53.686Z,972.6400
2022-10-17T03:29:53.467Z,972.6600
2022-10-17T03:30:53.567Z,972.6800
2022-10-17T03:31:55.845Z,972.6600
2022-10-17T03:32:58.097Z,972.6600
2022-10-17T03:34:00.328Z,972.6800
2022-10-17T03:35:02.615Z,972.6800
2022-10-17T03:36:04.774Z,972.7000
2022-10-17T03:37:07.039Z,972.7300
2022-10-17T03:38:09.273Z,972.7200
2022-10-17T03:39:11.532Z,972.7300
2022-10-17T03:40:13.795Z,972.7500
2022-10-17T03:41:13.904Z,972.7700
2022-10-17T03:43:30.186Z,972.7500
2022-10-17T03:44:31.193Z,972.7900
2022-10-17T03:45:33.416Z,972.7900
2022-10-17T03:46:35.588Z,972.7900
2022-10-17T03:47:37.715Z,972.8100
2022-10-17T03:48:39.958Z,972.8100
2022-10-17T03:49:42.090Z,972.8300
2022-10-17T03:50:44.245Z,972.8700
2022-10-17T03:51:46.470Z,972.8500
2022-10-17T03:52:48.679Z,972.9100
2022-10-17T03:53:51.239Z,972.9100
2022-10-17T03:54:53.061Z,972.9300
2022-10-17T03:55:55.280Z,972.9700
2022-10-17T03:57:59.749Z,972.9700
2022-10-17T03:58:59.866Z,973.0100
2022-10-17T04:00:02.006Z,973.0300
2022-10-17T04:01:04.265Z,973.0300
2022-10-17T04:02:06.391Z,973.0100
2022-10-17T04:03:08.593Z,973.0300
2022-10-17T04:04:10.831Z,973.0300
2022-10-17T04:05:12.965Z,973.0300
2022-10-17T04:06:15.129Z,973.0100
2022-10-17T04:07:17.349Z,973.0100
2022-10-17T04:08:19.497Z,972.9700
2022-10-17T04:09:21.709Z,972.9900
2022-10-17T04:10:23.865Z,973.0100
2022-10-17T04:11:26.054Z,972.9900
2022-10-17T04:12:28.636Z,973.0300
2022-10-17T04:13:30.500Z,973.0100
2022-10-17T04:14:32.757Z,973.0300
2022-10-17T04:15:34.966Z,973.0500
2022-10-17T04:16:37.178Z,973.0900
2022-10-17T04:17:38.232Z,973.0500
2022-10-17T04:18:39.499Z,973.0500
2022-10-17T04:19:41.776Z,973.0300
2022-10-17T04:20:43.935Z,973.0300
2022-10-17T04:21:46.158Z,973.0700
2022-10-17T04:22:48.372Z,973.0500
2022-10-17T04:23:50.614Z,973.0500
2022-10-17T04:24:52.851Z,973.1100
2022-10-17T04:25:55.104Z,973.0900
2022-10-17T04:26:57.356Z,973.1100
2022-10-17T04:27:59.598Z,973.1100
2022-10-17T04:28:59.700Z,973.0700
2022-10-17T04:30:01.988Z,973.0700
2022-10-17T04:31:04.196Z,973.0500
2022-10-17T04:32:06.439Z,973.0900
2022-10-17T04:33:08.672Z,973.0900
2022-10-17T04:34:10.884Z,973.0900
2022-10-17T04:35:13.149Z,973.1100
2022-10-17T04:36:15.313Z,973.1900
2022-10-17T04:37:17.517Z,973.1900
2022-10-17T04:38:19.738Z,973.1900
2022-10-17T04:39:21.977Z,973.1700
2022-10-17T04:40:24.218Z,973.1700
2022-10-17T04:41:24.293Z,973.2200
2022-10-17T04:42:29.038Z,973.2000
2022-10-17T04:42:41.557Z,973.2000
2022-10-17T04:43:46.908Z,973.2200
2022-10-17T04:44:46.009Z,973.2200
2022-10-17T04:45:48.288Z,973.2000
2022-10-17T04:46:50.468Z,973.2600
2022-10-17T04:47:52.695Z,973.2600
2022-10-17T04:48:54.923Z,973.2600
2022-10-17T04:49:57.165Z,973.2400
2022-10-17T04:50:57.306Z,973.2800
2022-10-17T04:51:59.503Z,973.2800
2022-10-17T04:53:01.727Z,973.2800
2022-10-17T04:54:03.928Z,973.3000
2022-10-17T04:55:06.113Z,973.3000
2022-10-17T04:56:08.349Z,973.3000
2022-10-17T04:57:10.497Z,973.3200
2022-10-17T04:58:12.699Z,973.3200
2022-10-17T04:59:14.909Z,973.3400
2022-10-17T05:00:17.093Z,973.3400
2022-10-17T05:01:19.328Z,973.3600
2022-10-17T05:02:23.445Z,973.3600
2022-10-17T05:03:23.541Z,973.3600
2022-10-17T05:04:25.763Z,973.3600
2022-10-17T05:05:27.961Z,973.3200
2022-10-17T05:06:30.212Z,973.3400
2022-10-17T05:07:30.243Z,973.3200
2022-10-17T05:08:32.446Z,973.3200
2022-10-17T05:09:34.628Z,973.3400
2022-10-17T05:10:36.797Z,973.3600
2022-10-17T05:11:39.015Z,973.3400
2022-10-17T05:12:41.115Z,973.3800
2022-10-17T05:13:43.276Z,973.3800
2022-10-17T05:14:45.490Z,973.3400
2022-10-17T05:15:47.634Z,973.3200
2022-10-17T05:16:49.852Z,973.3200
2022-10-17T05:17:52.005Z,973.3400
2022-10-17T05:18:54.194Z,973.3200
2022-10-17T05:19:56.378Z,973.3200
2022-10-17T05:20:58.563Z,973.3400
2022-10-17T05:22:00.785Z,973.3400
2022-10-17T05:23:02.910Z,973.3400
2022-10-17T05:24:05.115Z,973.3400
2022-10-17T05:25:07.306Z,973.3600
2022-10-17T05:26:08.365Z,973.3600
2022-10-17T05:26:22.357Z,973.3600
2022-10-17T05:27:24.565Z,973.3600
2022-10-17T05:28:26.784Z,973.3600
2022-10-17T05:29:28.929Z,973.3600
2022-10-17T05:30:35.097Z,973.3800
2022-10-17T05:31:33.361Z,973.4000
2022-10-17T05:32:35.591Z,973.3600
2022-10-17T05:33:37.761Z,973.3800
2022-10-17T05:34:39.994Z,973.3800
2022-10-17T05:35:42.250Z,973.3800
2022-10-17T05:36:44.490Z,973.3800
2022-10-17T05:37:44.650Z,973.4200
2022-10-17T05:38:46.836Z,973.4000
2022-10-17T05:39:51.394Z,973.3800
2022-10-17T05:40:51.356Z,973.4200
2022-10-17T05:41:53.599Z,973.4000
2022-10-17T05:42:55.830Z,973.4000
2022-10-17T05:43:59.468Z,973.3600
2022-10-17T05:45:00.225Z,973.3800
2022-10-17T05:46:02.491Z,973.4200
2022-10-17T05:47:04.744Z,973.3800
2022-10-17T05:48:04.904Z,973.4000
2022-10-17T05:49:15.040Z,973.4200
2022-10-17T05:50:09.406Z,973.4200
2022-10-17T05:51:11.644Z,973.4200
2022-10-17T05:52:13.905Z,973.4600
2022-10-17T05:53:16.238Z,973.4800
2022-10-17T05:54:18.443Z,973.5000
2022-10-17T05:55:20.710Z,973.5400
2022-10-17T05:56:22.974Z,973.5600
2022-10-17T05:57:23.118Z,973.5800
2022-10-17T05:58:45.518Z,973.6000
2022-10-17T05:59:27.661Z,973.6200
2022-10-17T06:00:29.990Z,973.6600
2022-10-17T06:01:32.258Z,973.6600
2022-10-17T06:02:34.488Z,973.6700
2022-10-17T06:03:36.689Z,973.6900
2022-10-17T06:04:38.931Z,973.6900
2022-10-17T06:05:39.049Z,973.7100
2022-10-17T06:06:41.327Z,973.7100
2022-10-17T06:07:43.598Z,973.7100
2022-10-17T06:08:45.935Z,973.7500
2022-10-17T06:09:48.120Z,973.7500
2022-10-17T06:10:50.394Z,973.8100
2022-10-17T06:11:52.661Z,973.8100
2022-10-17T06:12:54.939Z,973.7900
2022-10-17T06:13:55.044Z,973.7900
2022-10-17T06:14:57.304Z,973.7900
2022-10-17T06:15:59.561Z,973.7700
2022-10-17T06:17:01.865Z,973.7700
2022-10-17T06:18:04.142Z,973.7900
2022-10-17T06:19:06.468Z,973.8100
2022-10-17T06:20:08.731Z,973.7900
2022-10-17T06:21:11.019Z,973.8300
2022-10-17T06:22:11.151Z,973.8700
2022-10-17T06:23:13.385Z,973.8900
2022-10-17T06:24:15.709Z,973.9100
2022-10-17T06:25:17.923Z,973.9100
2022-10-17T06:26:20.121Z,973.9500
2022-10-17T06:27:22.398Z,973.9900
2022-10-17T06:28:24.697Z,974.0100
2022-10-17T06:29:26.974Z,974.0500
2022-10-17T06:30:29.203Z,974.0500
2022-10-17T06:31:31.474Z,974.0600
2022-10-17T06:32:33.751Z,974.0300
2022-10-17T06:33:35.981Z,974.0500
2022-10-17T06:34:38.275Z,974.0600
2022-10-17T06:35:40.457Z,974.0800
2022-10-17T06:36:42.759Z,974.0800
2022-10-17T06:37:45.013Z,974.1000
2022-10-17T06:38:47.228Z,974.0800
2022-10-17T06:39:47.385Z,974.1000
2022-10-17T06:40:49.622Z,974.1200
2022-10-17T06:41:51.869Z,974.1200
2022-10-17T06:42:54.093Z,974.1600
2022-10-17T06:43:56.313Z,974.1400
2022-10-17T06:44:58.599Z,974.1600
2022-10-17T06:46:00.856Z,974.1600
2022-10-17T06:47:03.131Z,974.1800
2022-10-17T06:48:05.338Z,974.2200
2022-10-17T06:49:07.553Z,974.2600
2022-10-17T06:50:07.694Z,974.2800
2022-10-17T06:51:09.889Z,974.3200
2022-10-17T06:52:12.102Z,974.3600
2022-10-17T06:53:14.338Z,974.3400
2022-10-17T06:54:16.583Z,974.3000
2022-10-17T06:55:22.586Z,974.3200
2022-10-17T06:56:21.231Z,974.3000
2022-10-17T06:57:23.567Z,974.3200
2022-10-17T06:58:23.779Z,974.3400
2022-10-17T06:59:26.160Z,974.3800
2022-10-17T07:00:28.565Z,974.3600
2022-10-17T07:01:30.942Z,974.3800
2022-10-17T07:02:31.600Z,974.4000
2022-10-17T07:03:33.577Z,974.3600
2022-10-17T07:04:35.964Z,974.4200
2022-10-17T07:05:38.419Z,974.4200
2022-10-17T07:06:38.616Z,974.4200
2022-10-17T07:07:43.161Z,974.4400
2022-10-17T07:08:43.439Z,974.4400
2022-10-17T07:09:43.678Z,974.4400
2022-10-17T07:10:46.125Z,974.4600
2022-10-17T07:11:48.459Z,974.4600
2022-10-17T07:12:50.856Z,974.4800
2022-10-17T07:13:53.264Z,974.4600
2022-10-17T07:14:55.669Z,974.5500
2022-10-17T07:17:00.390Z,974.5500
2022-10-17T07:18:00.569Z,974.5700
2022-10-17T07:19:02.862Z,974.6100
2022-10-17T07:20:05.129Z,974.6300
2022-10-17T07:21:07.431Z,974.6300
2022-10-17T07:22:09.675Z,974.6300
2022-10-17T07:23:11.942Z,974.6700
2022-10-17T07:24:14.215Z,974.6700
2022-10-17T07:25:16.480Z,974.6700
2022-10-17T07:26:16.643Z,974.7500
2022-10-17T07:27:18.844Z,974.7900
2022-10-17T07:28:21.155Z,974.7900
2022-10-17T07:29:23.314Z,974.7900
2022-10-17T07:30:25.564Z,974.7700
2022-10-17T07:31:27.862Z,974.8300
2022-10-17T07:32:30.059Z,974.8300
2022-10-17T07:33:32.307Z,974.8300
2022-10-17T07:34:34.543Z,974.8300
2022-10-17T07:35:36.743Z,974.8300
2022-10-17T07:36:39.013Z,974.8300
2022-10-17T07:37:39.100Z,974.8100
2022-10-17T07:38:41.376Z,974.8300
2022-10-17T07:39:43.588Z,974.8100
2022-10-17T07:40:45.821Z,974.8100
2022-10-17T07:41:48.108Z,974.8100
2022-10-17T07:42:50.285Z,974.8100
2022-10-17T07:43:52.536Z,974.8500
2022-10-17T07:44:54.819Z,974.8500
2022-10-17T07:45:57.068Z,974.8500
2022-10-17T07:46:57.246Z,974.8500
2022-10-17T07:47:59.440Z,974.8700
2022-10-17T07:49:01.711Z,974.8500
2022-10-17T07:50:03.970Z,974.8700
2022-10-17T07:51:06.247Z,974.8700
2022-10-17T07:52:08.552Z,974.8700
2022-10-17T07:53:10.807Z,974.9100
2022-10-17T07:54:13.082Z,974.8900
2022-10-17T07:55:13.205Z,974.8700
2022-10-17T07:56:15.451Z,974.8900
2022-10-17T07:57:17.788Z,974.8900
2022-10-17T07:58:20.014Z,974.8900
2022-10-17T07:59:22.289Z,974.8500
2022-10-17T08:00:24.551Z,974.8900
2022-10-17T08:01:26.851Z,974.8700
2022-10-17T08:02:29.524Z,974.8700
2022-10-17T08:03:29.303Z,974.8700
2022-10-17T08:04:31.631Z,974.9100
2022-10-17T08:05:33.964Z,974.8900
2022-10-17T08:06:36.275Z,974.8700
2022-10-17T08:07:38.648Z,974.8900
2022-10-17T08:08:40.936Z,974.9700
2022-10-17T08:09:41.120Z,974.9500
2022-10-17T08:10:43.489Z,974.9500
2022-10-17T08:11:45.888Z,974.9700
2022-10-17T08:12:46.183Z,974.9500
2022-10-17T08:13:48.539Z,974.9300
2022-10-17T08:14:50.922Z,974.9500
2022-10-17T08:15:53.318Z,974.9700
2022-10-17T08:16:53.560Z,974.9900
2022-10-17T08:17:55.953Z,974.9700
2022-10-17T08:18:58.289Z,975.0100
2022-10-17T08:20:00.629Z,974.9900
2022-10-17T08:21:02.948Z,974.9900
2022-10-17T08:22:03.170Z,974.9900
2022-10-17T08:23:05.486Z,974.9500
2022-10-17T08:24:07.789Z,974.9300
2022-10-17T08:25:10.265Z,974.9300
2022-10-17T08:26:12.485Z,974.9300
2022-10-17T08:27:14.868Z,974.9300
2022-10-17T08:28:15.157Z,974.9300
2022-10-17T08:29:17.483Z,974.9500
2022-10-17T08:30:19.880Z,974.9500
2022-10-17T08:31:22.261Z,974.9300
2022-10-17T08:32:22.493Z,974.9300
2022-10-17T08:33:24.922Z,974.9500
2022-10-17T08:34:27.246Z,974.9700
2022-10-17T08:35:29.534Z,974.9900
2022-10-17T08:36:31.760Z,974.9900
2022-10-17T08:37:32.359Z,974.9900
2022-10-17T08:38:35.671Z,974.9900
2022-10-17T08:39:36.453Z,974.9900
2022-10-17T08:40:38.752Z,974.9900
2022-10-17T08:41:40.989Z,974.9900
2022-10-17T08:42:43.245Z,975.0100
2022-10-17T08:43:45.562Z,975.0300
2022-10-17T08:44:45.617Z,975.0700
2022-10-17T08:45:47.915Z,975.0700
2022-10-17T08:46:50.216Z,975.0500
2022-10-17T08:47:52.489Z,975.0500
2022-10-17T08:48:54.752Z,975.0500
2022-10-17T08:49:57.005Z,975.0300
2022-10-17T08:50:59.327Z,975.0900
2022-10-17T08:51:59.499Z,975.0700
2022-10-17T08:53:01.829Z,975.0700
2022-10-17T08:54:04.191Z,975.0900
2022-10-17T08:55:06.493Z,975.0900
2022-10-17T08:56:11.944Z,975.1100
2022-10-17T08:57:11.031Z,975.0900
2022-10-17T08:58:11.240Z,975.0900
2022-10-17T08:59:13.640Z,975.0700
2022-10-17T09:00:15.949Z,975.0900
2022-10-17T09:01:18.328Z,975.0700
2022-10-17T09:02:20.683Z,975.1100
2022-10-17T09:03:20.919Z,975.1300
2022-10-17T09:04:23.241Z,975.1100
2022-10-17T09:05:26.632Z,975.0900
2022-10-17T09:06:27.773Z,975.1300
2022-10-17T09:07:30.546Z,975.1400
2022-10-17T09:08:32.441Z,975.1400
2022-10-17T09:09:32.661Z,975.1400
2022-10-17T09:10:34.991Z,975.1300
2022-10-17T09:11:37.336Z,975.1300
2022-10-17T09:12:39.648Z,975.1400
2022-10-17T09:13:41.978Z,975.1300
2022-10-17T09:14:42.169Z,975.1400
2022-10-17T09:15:42.296Z,975.1400
2022-10-17T09:16:44.638Z,975.1400
2022-10-17T09:17:46.996Z,975.1600
2022-10-17T09:18:49.338Z,975.1400
2022-10-17T09:19:49.567Z,975.1400
2022-10-17T09:20:51.828Z,975.1600
2022-10-17T09:21:54.138Z,975.1400
2022-10-17T09:24:08.845Z,975.1300
2022-10-17T09:25:01.127Z,975.1300
2022-10-17T09:26:03.401Z,975.1400
2022-10-17T09:27:05.735Z,975.1400
2022-10-17T09:28:08.077Z,975.1300
2022-10-17T09:29:08.342Z,975.1400
2022-10-17T09:30:21.377Z,975.1300
2022-10-17T09:31:12.942Z,975.1600
2022-10-17T09:32:15.231Z,975.1400
2022-10-17T09:33:28.533Z,975.1400
2022-10-17T09:34:17.731Z,975.1800
2022-10-17T09:35:20.087Z,975.1600
2022-10-17T09:36:22.382Z,975.1600
2022-10-17T09:37:24.749Z,975.1800
2022-10-17T09:38:27.049Z,975.1800
2022-10-17T09:39:29.375Z,975.1800
2022-10-17T09:40:29.580Z,975.2000
2022-10-17T09:41:44.787Z,975.1800
2022-10-17T09:42:34.140Z,975.1800
2022-10-17T09:43:36.482Z,975.1800
2022-10-17T09:44:38.818Z,975.1600
2022-10-17T09:45:39.095Z,975.1600
2022-10-17T09:46:41.359Z,975.1600
2022-10-17T09:47:43.694Z,975.1800
2022-10-17T09:48:47.764Z,975.1800
2022-10-17T09:49:48.284Z,975.2200
2022-10-17T09:50:57.947Z,975.2200
2022-10-17T09:51:50.760Z,975.2400
2022-10-17T09:52:53.097Z,975.2600
2022-10-17T09:53:55.441Z,975.2200
2022-10-17T09:55:05.228Z,975.2200
2022-10-17T09:56:07.547Z,975.2400
2022-10-17T09:57:09.839Z,975.2400
2022-10-17T09:58:12.153Z,975.2400
2022-10-17T09:59:14.456Z,975.2400
2022-10-17T10:00:16.787Z,975.2800
2022-10-17T10:01:22.733Z,975.2800
2022-10-17T10:02:21.189Z,975.2800
2022-10-17T10:03:23.405Z,975.2800
2022-10-17T10:04:27.636Z,975.2800
2022-10-17T10:05:27.940Z,975.3000
2022-10-17T10:06:30.234Z,975.2600
2022-10-17T10:07:32.485Z,975.2600
2022-10-17T10:08:32.607Z,975.2800
2022-10-17T10:09:36.880Z,975.2800
2022-10-17T10:10:37.093Z,975.3000
2022-10-17T10:11:39.357Z,975.3000
2022-10-17T10:12:41.592Z,975.3000
2022-10-17T10:13:43.821Z,975.2800
2022-10-17T10:14:47.293Z,975.3000
2022-10-17T10:15:48.325Z,975.3200
2022-10-17T10:16:50.659Z,975.3200
2022-10-17T10:17:52.872Z,975.3000
2022-10-17T10:18:55.148Z,975.3000
2022-10-17T10:19:57.397Z,975.2800
2022-10-17T10:20:57.536Z,975.3200
2022-10-17T10:21:59.825Z,975.3400
2022-10-17T10:23:02.012Z,975.3200
2022-10-17T10:24:04.263Z,975.3200
2022-10-17T10:25:06.492Z,975.3600
2022-10-17T10:26:10.037Z,975.3800
2022-10-17T10:27:11.028Z,975.3200
2022-10-17T10:28:13.237Z,975.3000
2022-10-17T10:29:13.350Z,975.3000
2022-10-17T10:30:15.607Z,975.3000
2022-10-17T10:31:17.869Z,975.3000
2022-10-17T10:32:20.174Z,975.3200
2022-10-17T10:33:22.397Z,975.3200
2022-10-17T10:34:24.668Z,975.3000
2022-10-17T10:35:26.944Z,975.3200
2022-10-17T10:36:29.287Z,975.2800
2022-10-17T10:37:29.740Z,975.2800
2022-10-17T10:38:31.557Z,975.3200
2022-10-17T10:39:33.771Z,975.3200
2022-10-17T10:40:36.019Z,975.3200
2022-10-17T10:41:38.229Z,975.3200
2022-10-17T10:42:40.463Z,975.3000
2022-10-17T10:43:42.678Z,975.2600
2022-10-17T10:44:44.919Z,975.2400
2022-10-17T10:45:48.718Z,975.3000
2022-10-17T10:46:49.437Z,975.3000
2022-10-17T10:47:51.786Z,975.3200
2022-10-17T10:48:54.045Z,975.3400
2022-10-17T10:49:54.164Z,975.3200
2022-10-17T10:50:56.390Z,975.3200
2022-10-17T10:51:58.616Z,975.3000
2022-10-17T10:53:00.853Z,975.2600
2022-10-17T10:54:03.046Z,975.2600
2022-10-17T10:55:05.272Z,975.2600
2022-10-17T10:56:07.507Z,975.2400
2022-10-17T10:57:09.746Z,975.2600
2022-10-17T10:58:12.013Z,975.2400
2022-10-17T10:59:12.006Z,975.2400
2022-10-17T11:00:14.210Z,975.2000
2022-10-17T11:01:16.442Z,975.1600
2022-10-17T11:02:18.602Z,975.1600
2022-10-17T11:03:20.877Z,975.1600
2022-10-17T11:04:20.918Z,975.1600
2022-10-17T11:05:23.169Z,975.1400
2022-10-17T11:06:25.410Z,975.1100
2022-10-17T11:07:28.018Z,975.1300
2022-10-17T11:08:29.911Z,975.1100
2022-10-17T11:09:33.786Z,975.0900
2022-10-17T11:10:34.333Z,975.0900
2022-10-17T11:11:36.592Z,975.0900
2022-10-17T11:12:38.937Z,975.0500
2022-10-17T11:13:41.141Z,975.0500
2022-10-17T11:14:43.353Z,975.0500
2022-10-17T11:15:45.576Z,975.0300
2022-10-17T11:16:47.779Z,975.0300
2022-10-17T11:17:49.978Z,975.0100
2022-10-17T11:18:52.261Z,974.9900
2022-10-17T11:19:54.416Z,975.0100
2022-10-17T11:20:56.615Z,974.9700
2022-10-17T11:21:58.793Z,975.0100
2022-10-17T11:23:00.952Z,975.0100
2022-10-17T11:24:06.842Z,975.0100
2022-10-17T11:25:05.394Z,974.9900
2022-10-17T11:26:07.615Z,974.9700
2022-10-17T11:27:07.685Z,974.9700
2022-10-17T11:28:09.922Z,974.9300
2022-10-17T11:29:12.187Z,974.9500
2022-10-17T11:30:14.338Z,974.9700
2022-10-17T11:31:16.520Z,974.9900
2022-10-17T11:32:16.598Z,974.9700
2022-10-17T11:33:18.814Z,974.9900
2022-10-17T11:34:21.087Z,975.0100
2022-10-17T11:35:23.232Z,974.9700
2022-10-17T11:36:25.471Z,974.9700
2022-10-17T11:37:25.541Z,974.9700
2022-10-17T11:38:27.758Z,974.9500
2022-10-17T11:39:30.009Z,974.9500
2022-10-17T11:40:32.221Z,974.9900
2022-10-17T11:41:34.446Z,974.9500
2022-10-17T11:42:36.676Z,974.9700
2022-10-17T11:43:38.911Z,974.9700
2022-10-17T11:44:41.124Z,974.9900
2022-10-17T11:45:43.232Z,974.9700
2022-10-17T11:46:45.468Z,974.9900
2022-10-17T11:47:47.703Z,974.9700
2022-10-17T11:48:49.897Z,974.9900
2022-10-17T11:49:52.307Z,974.9700
2022-10-17T11:52:01.467Z,974.9500
2022-10-17T11:52:59.512Z,974.9500
2022-10-17T11:54:01.254Z,974.9100
2022-10-17T11:55:01.431Z,974.9100
2022-10-17T11:56:03.690Z,974.9100
2022-10-17T11:57:05.963Z,974.8900
2022-10-17T11:58:08.246Z,974.9100
2022-10-17T11:59:10.531Z,974.8500
2022-10-17T12:00:12.865Z,974.9100
2022-10-17T12:01:15.098Z,974.9100
2022-10-17T12:02:15.231Z,974.8900
2022-10-17T12:03:17.499Z,974.8900
2022-10-17T12:04:19.805Z,974.8500
2022-10-17T12:05:22.105Z,974.9100
2022-10-17T12:06:25.842Z,974.8700
2022-10-17T12:07:24.483Z,974.9300
2022-10-17T12:08:29.169Z,974.8700
2022-10-17T12:09:28.924Z,974.8700
2022-10-17T12:10:31.229Z,974.8700
2022-10-17T12:11:33.443Z,974.8500
2022-10-17T12:12:35.645Z,974.8500
2022-10-17T12:13:37.855Z,974.8500
2022-10-17T12:14:40.119Z,974.8300